createdAt,value
2017-12-27T00:00:14.861Z,0
2017-12-27T00:01:29.558Z,0
2017-12-27T00:02:14.920Z,0
2017-12-27T00:03:14.920Z,0
2017-12-27T00:04:29.348Z,0
2017-12-27T00:05:29.637Z,0
2017-12-27T00:06:14.713Z,0
2017-12-27T00:07:15.035Z,0
2017-12-27T00:08:14.739Z,0
2017-12-27T00:09:14.795Z,0
2017-12-27T00:10:15.045Z,0
2017-12-27T00:11:15.019Z,0
2017-12-27T00:12:14.811Z,0
2017-12-27T00:13:29.514Z,0
2017-12-27T00:14:14.853Z,0
2017-12-27T00:15:15.108Z,0
2017-12-27T00:16:14.593Z,0
2017-12-27T00:17:14.886Z,0
2017-12-27T00:18:14.639Z,0
2017-12-27T00:19:14.392Z,0
2017-12-27T00:20:15.190Z,0
2017-12-27T00:21:14.695Z,0
2017-12-27T00:22:14.970Z,0
2017-12-27T00:23:15.245Z,0
2017-12-27T00:24:15.242Z,0
2017-12-27T00:25:15.269Z,0
2017-12-27T00:26:29.721Z,0
2017-12-27T00:27:29.956Z,0
2017-12-27T00:28:15.288Z,0
2017-12-27T00:29:14.807Z,0
2017-12-27T00:30:29.751Z,0
2017-12-27T00:31:15.137Z,0
2017-12-27T00:32:15.117Z,0
2017-12-27T00:33:30.041Z,0
2017-12-27T00:34:15.408Z,0
2017-12-27T00:35:15.418Z,0
2017-12-27T00:36:15.435Z,0
2017-12-27T00:37:15.221Z,0
2017-12-27T00:38:15.458Z,0
2017-12-27T00:39:15.483Z,0
2017-12-27T00:40:30.133Z,0
2017-12-27T00:42:30.177Z,0
2017-12-27T00:43:15.523Z,0
2017-12-27T00:44:15.318Z,0
2017-12-27T00:46:15.577Z,0
2017-12-27T00:47:15.316Z,0
2017-12-27T00:48:15.585Z,0
2017-12-27T00:49:30.281Z,0
2017-12-27T00:50:15.617Z,0
2017-12-27T00:51:15.458Z,0
2017-12-27T00:52:15.458Z,0
2017-12-27T00:53:30.317Z,0
2017-12-27T00:54:30.111Z,0
2017-12-27T00:56:15.441Z,0
2017-12-27T00:57:15.479Z,0
2017-12-27T00:58:15.250Z,0
2017-12-27T00:59:15.774Z,0
2017-12-27T01:00:30.182Z,0
2017-12-27T01:01:15.803Z,0
2017-12-27T01:03:15.855Z,0
2017-12-27T01:04:15.334Z,0
2017-12-27T01:05:30.277Z,0
2017-12-27T01:06:30.529Z,0
2017-12-27T01:07:15.908Z,0
2017-12-27T01:08:15.892Z,0
2017-12-27T01:09:30.404Z,0
2017-12-27T01:10:15.943Z,0
2017-12-27T01:12:15.947Z,0
2017-12-27T01:13:30.376Z,0
2017-12-27T01:14:15.744Z,0
2017-12-27T01:15:15.965Z,0
2017-12-27T01:16:15.794Z,0
2017-12-27T01:17:16.037Z,0
2017-12-27T01:18:16.077Z,0
2017-12-27T01:19:16.078Z,0
2017-12-27T01:20:30.214Z,0
2017-12-27T01:21:30.268Z,0
2017-12-27T01:22:15.851Z,0
2017-12-27T01:23:16.100Z,0
2017-12-27T01:24:15.589Z,0
2017-12-27T01:25:15.918Z,0
2017-12-27T01:26:16.198Z,0
2017-12-27T01:27:45.496Z,0
2017-12-27T01:28:15.679Z,0
2017-12-27T01:29:15.695Z,0
2017-12-27T01:30:15.961Z,0
2017-12-27T01:31:16.385Z,0
2017-12-27T01:32:16.256Z,0
2017-12-27T01:33:15.881Z,0
2017-12-27T01:34:16.014Z,0
2017-12-27T01:35:16.255Z,0
2017-12-27T01:36:30.992Z,0
2017-12-27T01:37:15.826Z,0
2017-12-27T01:38:16.050Z,0
2017-12-27T01:39:31.035Z,0
2017-12-27T01:40:16.075Z,0
2017-12-27T01:41:30.784Z,0
2017-12-27T01:42:16.153Z,0
2017-12-27T01:43:16.381Z,0
2017-12-27T01:44:16.196Z,0
2017-12-27T01:45:16.041Z,0
2017-12-27T01:46:16.427Z,0
2017-12-27T01:47:16.492Z,0
2017-12-27T01:48:16.215Z,0
2017-12-27T01:49:15.750Z,0
2017-12-27T01:50:16.508Z,0
2017-12-27T01:51:31.167Z,0
2017-12-27T01:52:16.009Z,0
2017-12-27T01:53:16.566Z,0
2017-12-27T01:54:16.554Z,0
2017-12-27T01:55:16.569Z,0
2017-12-27T01:56:16.354Z,0
2017-12-27T01:57:16.363Z,0
2017-12-27T01:58:16.636Z,0
2017-12-27T01:59:16.638Z,0
2017-12-27T02:00:31.082Z,0
2017-12-27T02:01:30.832Z,0
2017-12-27T02:02:16.524Z,0
2017-12-27T02:03:16.657Z,0
2017-12-27T02:04:16.728Z,0
2017-12-27T02:05:16.755Z,0
2017-12-27T02:06:31.158Z,0
2017-12-27T02:07:16.747Z,0
2017-12-27T02:08:31.163Z,0
2017-12-27T02:09:16.796Z,0
2017-12-27T02:10:16.528Z,0
2017-12-27T02:12:16.819Z,0
2017-12-27T02:13:16.836Z,0
2017-12-27T02:15:31.511Z,0
2017-12-27T02:16:16.640Z,0
2017-12-27T02:17:16.863Z,0
2017-12-27T02:18:16.641Z,0
2017-12-27T02:19:16.900Z,0
2017-12-27T02:20:16.921Z,0
2017-12-27T02:21:16.914Z,0
2017-12-27T02:22:17.072Z,0
2017-12-27T02:24:31.453Z,0
2017-12-27T02:25:31.699Z,0
2017-12-27T02:26:16.250Z,0
2017-12-27T02:27:17.044Z,0
2017-12-27T02:28:17.026Z,0
2017-12-27T02:29:16.557Z,0
2017-12-27T02:30:17.046Z,0
2017-12-27T02:31:17.085Z,0
2017-12-27T02:32:17.154Z,0
2017-12-27T02:33:17.129Z,0
2017-12-27T02:34:17.142Z,0
2017-12-27T02:35:16.893Z,0
2017-12-27T02:36:16.938Z,0
2017-12-27T02:38:16.948Z,0
2017-12-27T02:40:31.736Z,0
2017-12-27T02:41:17.216Z,0
2017-12-27T02:42:31.705Z,0
2017-12-27T02:43:17.280Z,0
2017-12-27T02:44:16.766Z,0
2017-12-27T02:45:17.039Z,0
2017-12-27T02:46:17.415Z,0
2017-12-27T02:47:17.318Z,0
2017-12-27T02:48:17.333Z,0
2017-12-27T02:49:31.770Z,0
2017-12-27T02:50:17.372Z,0
2017-12-27T02:51:32.020Z,0
2017-12-27T02:52:17.381Z,0
2017-12-27T02:53:17.393Z,0
2017-12-27T02:54:17.185Z,0
2017-12-27T02:55:17.442Z,0
2017-12-27T02:56:31.633Z,0
2017-12-27T02:57:17.469Z,0
2017-12-27T02:58:17.448Z,0
2017-12-27T02:59:17.510Z,0
2017-12-27T03:00:31.923Z,0
2017-12-27T03:01:17.520Z,0
2017-12-27T03:02:17.523Z,0
2017-12-27T03:03:31.977Z,0
2017-12-27T03:05:17.562Z,0
2017-12-27T03:06:17.582Z,0
2017-12-27T03:07:17.609Z,0
2017-12-27T03:08:17.349Z,0
2017-12-27T03:09:17.111Z,0
2017-12-27T03:10:17.637Z,0
2017-12-27T03:11:32.345Z,0
2017-12-27T03:12:17.425Z,0
2017-12-27T03:13:17.667Z,0
2017-12-27T03:14:32.365Z,0
2017-12-27T03:15:17.440Z,0
2017-12-27T03:16:17.461Z,0
2017-12-27T03:18:17.744Z,0
2017-12-27T03:19:17.815Z,0
2017-12-27T03:20:17.758Z,0
2017-12-27T03:21:17.559Z,0
2017-12-27T03:22:17.060Z,0
2017-12-27T03:23:17.579Z,0
2017-12-27T03:24:17.324Z,0
2017-12-27T03:25:17.583Z,0
2017-12-27T03:26:17.608Z,0
2017-12-27T03:27:17.612Z,0
2017-12-27T03:28:17.657Z,0
2017-12-27T03:29:17.650Z,0
2017-12-27T03:30:17.653Z,0
2017-12-27T03:31:17.425Z,0
2017-12-27T03:32:17.985Z,0
2017-12-27T03:33:17.959Z,0
2017-12-27T03:34:17.964Z,0
2017-12-27T03:35:17.986Z,0
2017-12-27T03:36:17.997Z,0
2017-12-27T03:37:18.038Z,0
2017-12-27T03:38:18.016Z,0
2017-12-27T03:39:17.836Z,0
2017-12-27T03:40:32.694Z,0
2017-12-27T03:41:17.569Z,0
2017-12-27T03:42:18.114Z,0
2017-12-27T03:43:32.507Z,0
2017-12-27T03:45:17.852Z,0
2017-12-27T03:46:18.107Z,0
2017-12-27T03:47:18.116Z,0
2017-12-27T03:48:17.893Z,0
2017-12-27T03:49:17.923Z,0
2017-12-27T03:50:18.164Z,0
2017-12-27T03:51:32.626Z,0
2017-12-27T03:53:18.225Z,0
2017-12-27T03:54:18.232Z,0
2017-12-27T03:55:18.283Z,0
2017-12-27T03:56:18.377Z,0
2017-12-27T03:57:18.287Z,0
2017-12-27T03:58:18.395Z,0
2017-12-27T03:59:32.760Z,0
2017-12-27T04:00:33.017Z,0
2017-12-27T04:01:18.341Z,0
2017-12-27T04:02:18.374Z,0
2017-12-27T04:03:18.376Z,0
2017-12-27T04:04:17.899Z,0
2017-12-27T04:05:18.160Z,0
2017-12-27T04:06:33.073Z,0
2017-12-27T04:07:33.123Z,0
2017-12-27T04:08:18.431Z,0
2017-12-27T04:09:33.099Z,0
2017-12-27T04:10:18.482Z,0
2017-12-27T04:12:18.507Z,0
2017-12-27T04:13:18.260Z,0
2017-12-27T04:14:33.217Z,0
2017-12-27T04:15:32.720Z,0
2017-12-27T04:16:33.220Z,0
2017-12-27T04:17:18.603Z,0
2017-12-27T04:18:18.329Z,0
2017-12-27T04:19:18.336Z,0
2017-12-27T04:20:18.631Z,0
2017-12-27T04:21:33.060Z,0
2017-12-27T04:22:18.388Z,0
2017-12-27T04:23:18.630Z,0
2017-12-27T04:24:18.400Z,0
2017-12-27T04:25:18.703Z,0
2017-12-27T04:26:18.647Z,0
2017-12-27T04:27:18.699Z,0
2017-12-27T04:28:33.139Z,0
2017-12-27T04:29:18.498Z,0
2017-12-27T04:30:18.752Z,0
2017-12-27T04:31:48.089Z,0
2017-12-27T04:32:18.760Z,0
2017-12-27T04:33:18.766Z,0
2017-12-27T04:34:18.803Z,0
2017-12-27T04:35:18.550Z,0
2017-12-27T04:36:18.283Z,0
2017-12-27T04:37:18.562Z,0
2017-12-27T04:38:18.838Z,0
2017-12-27T04:39:18.338Z,0
2017-12-27T04:40:18.874Z,0
2017-12-27T04:42:18.880Z,0
2017-12-27T04:43:18.933Z,0
2017-12-27T04:44:18.919Z,0
2017-12-27T04:45:18.717Z,0
2017-12-27T04:46:33.348Z,0
2017-12-27T04:47:18.735Z,0
2017-12-27T04:49:18.748Z,0
2017-12-27T04:50:18.979Z,0
2017-12-27T04:51:19.069Z,0
2017-12-27T04:52:19.022Z,0
2017-12-27T04:55:19.066Z,0
2017-12-27T04:57:19.097Z,0
2017-12-27T04:58:18.882Z,0
2017-12-27T04:59:19.144Z,0
2017-12-27T05:00:19.156Z,0
2017-12-27T05:01:33.801Z,0
2017-12-27T05:02:33.593Z,0
2017-12-27T05:03:19.230Z,0
2017-12-27T05:04:33.859Z,0
2017-12-27T05:05:33.633Z,0
2017-12-27T05:06:18.713Z,0
2017-12-27T05:07:18.726Z,0
2017-12-27T05:08:18.772Z,0
2017-12-27T05:09:19.272Z,0
2017-12-27T05:10:33.956Z,0
2017-12-27T05:11:19.283Z,0
2017-12-27T05:13:19.316Z,0
2017-12-27T05:14:19.326Z,0
2017-12-27T05:15:19.094Z,0
2017-12-27T05:16:19.106Z,0
2017-12-27T05:17:19.129Z,0
2017-12-27T05:18:48.475Z,0
2017-12-27T05:19:19.367Z,0
2017-12-27T05:20:34.080Z,0
2017-12-27T05:22:19.411Z,0
2017-12-27T05:23:19.564Z,0
2017-12-27T05:24:19.487Z,0
2017-12-27T05:25:19.476Z,0
2017-12-27T05:26:19.466Z,0
2017-12-27T05:27:33.907Z,0
2017-12-27T05:28:19.513Z,0
2017-12-27T05:29:19.271Z,0
2017-12-27T05:30:19.553Z,0
2017-12-27T05:31:19.305Z,0
2017-12-27T05:32:19.348Z,0
2017-12-27T05:33:19.621Z,0
2017-12-27T05:34:34.254Z,0
2017-12-27T05:35:19.358Z,0
2017-12-27T05:36:19.618Z,0
2017-12-27T05:37:19.372Z,0
2017-12-27T05:38:19.143Z,0
2017-12-27T05:39:19.144Z,0
2017-12-27T05:40:19.700Z,0
2017-12-27T05:42:34.108Z,0
2017-12-27T05:43:19.483Z,0
2017-12-27T05:44:19.481Z,0
2017-12-27T05:45:19.765Z,0
2017-12-27T05:47:19.767Z,0
2017-12-27T05:48:19.819Z,0
2017-12-27T05:50:34.210Z,0
2017-12-27T05:51:19.561Z,0
2017-12-27T05:52:34.284Z,0
2017-12-27T05:53:19.344Z,0
2017-12-27T05:54:19.587Z,0
2017-12-27T05:55:19.617Z,0
2017-12-27T05:56:19.709Z,0
2017-12-27T05:57:19.427Z,0
2017-12-27T05:59:19.928Z,0
2017-12-27T06:00:19.723Z,0
2017-12-27T06:01:19.987Z,0
2017-12-27T06:02:19.943Z,0
2017-12-27T06:03:20.023Z,0
2017-12-27T06:04:19.745Z,0
2017-12-27T06:05:20.008Z,0
2017-12-27T06:06:34.451Z,0
2017-12-27T06:07:20.037Z,0
2017-12-27T06:08:19.823Z,0
2017-12-27T06:09:20.138Z,0
2017-12-27T06:10:20.078Z,0
2017-12-27T06:11:20.105Z,0
2017-12-27T06:12:20.106Z,0
2017-12-27T06:13:20.120Z,0
2017-12-27T06:14:34.803Z,0
2017-12-27T06:15:34.810Z,0
2017-12-27T06:16:20.160Z,0
2017-12-27T06:17:34.873Z,0
2017-12-27T06:18:20.183Z,0
2017-12-27T06:19:20.211Z,0
2017-12-27T06:20:20.328Z,0
2017-12-27T06:21:34.901Z,0
2017-12-27T06:22:20.268Z,0
2017-12-27T06:23:20.245Z,0
2017-12-27T06:24:20.286Z,0
2017-12-27T06:25:20.278Z,0
2017-12-27T06:26:20.303Z,0
2017-12-27T06:27:19.547Z,0
2017-12-27T06:28:20.319Z,0
2017-12-27T06:29:20.422Z,0
2017-12-27T06:30:20.355Z,0
2017-12-27T06:31:20.119Z,0
2017-12-27T06:32:20.136Z,0
2017-12-27T06:33:20.141Z,0
2017-12-27T06:34:20.417Z,0
2017-12-27T06:35:20.422Z,0
2017-12-27T06:36:19.949Z,0
2017-12-27T06:37:20.441Z,0
2017-12-27T06:38:20.200Z,0
2017-12-27T06:41:20.286Z,0
2017-12-27T06:42:20.497Z,0
2017-12-27T06:43:35.211Z,0
2017-12-27T06:44:20.019Z,0
2017-12-27T06:45:20.563Z,0
2017-12-27T06:46:20.540Z,0
2017-12-27T06:47:20.567Z,0
2017-12-27T06:48:20.103Z,0
2017-12-27T06:49:20.102Z,0
2017-12-27T06:50:20.635Z,0
2017-12-27T06:51:20.404Z,0
2017-12-27T06:52:20.416Z,0
2017-12-27T06:53:35.339Z,0
2017-12-27T06:54:20.422Z,0
2017-12-27T06:55:20.430Z,0
2017-12-27T06:56:35.360Z,0
2017-12-27T06:57:20.702Z,0
2017-12-27T06:58:20.501Z,0
2017-12-27T06:59:20.482Z,0
2017-12-27T07:00:20.866Z,0
2017-12-27T07:01:20.785Z,0
2017-12-27T07:02:20.751Z,0
2017-12-27T07:03:49.879Z,0
2017-12-27T07:04:20.537Z,0
2017-12-27T07:05:20.824Z,0
2017-12-27T07:06:35.242Z,0
2017-12-27T07:07:20.870Z,0
2017-12-27T07:08:20.580Z,0
2017-12-27T07:09:50.244Z,0
2017-12-27T07:10:20.880Z,0
2017-12-27T07:11:20.884Z,0
2017-12-27T07:12:35.617Z,5
2017-12-27T07:13:20.662Z,5
2017-12-27T07:15:20.178Z,5
2017-12-27T07:16:20.957Z,5
2017-12-27T07:17:21.000Z,5
2017-12-27T07:18:20.957Z,5
2017-12-27T07:19:21.004Z,5
2017-12-27T07:20:35.410Z,5
2017-12-27T07:21:21.137Z,5
2017-12-27T07:22:35.451Z,10
2017-12-27T07:23:21.070Z,10
2017-12-27T07:24:35.774Z,10
2017-12-27T07:25:35.755Z,10
2017-12-27T07:26:35.799Z,10
2017-12-27T07:28:35.801Z,15
2017-12-27T07:29:20.916Z,15
2017-12-27T07:30:21.161Z,15
2017-12-27T07:31:21.189Z,15
2017-12-27T07:32:21.175Z,15
2017-12-27T07:33:21.190Z,20
2017-12-27T07:34:35.916Z,20
2017-12-27T07:35:35.895Z,20
2017-12-27T07:36:21.233Z,20
2017-12-27T07:37:21.285Z,20
2017-12-27T07:38:21.257Z,20
2017-12-27T07:39:21.258Z,20
2017-12-27T07:40:21.022Z,25
2017-12-27T07:41:35.983Z,25
2017-12-27T07:42:21.077Z,25
2017-12-27T07:43:21.339Z,25
2017-12-27T07:44:21.103Z,25
2017-12-27T07:45:35.768Z,25
2017-12-27T07:46:21.368Z,25
2017-12-27T07:47:21.383Z,30
2017-12-27T07:48:35.799Z,30
2017-12-27T07:49:21.407Z,30
2017-12-27T07:50:21.455Z,30
2017-12-27T07:51:35.861Z,30
2017-12-27T07:52:21.469Z,30
2017-12-27T07:53:21.472Z,30
2017-12-27T07:54:21.479Z,35
2017-12-27T07:55:35.656Z,35
2017-12-27T07:56:36.166Z,35
2017-12-27T07:57:21.504Z,35
2017-12-27T07:58:21.498Z,35
2017-12-27T07:59:21.565Z,35
2017-12-27T08:00:21.583Z,40
2017-12-27T08:01:36.279Z,40
2017-12-27T08:02:21.600Z,40
2017-12-27T08:03:50.947Z,40
2017-12-27T08:04:21.624Z,40
2017-12-27T08:05:21.627Z,40
2017-12-27T08:06:36.297Z,40
2017-12-27T08:07:36.056Z,40
2017-12-27T08:08:21.666Z,40
2017-12-27T08:09:21.427Z,40
2017-12-27T08:10:21.698Z,40
2017-12-27T08:11:21.453Z,40
2017-12-27T08:12:21.448Z,45
2017-12-27T08:13:21.470Z,45
2017-12-27T08:14:21.768Z,45
2017-12-27T08:15:21.754Z,45
2017-12-27T08:16:21.525Z,45
2017-12-27T08:17:36.458Z,45
2017-12-27T08:18:36.461Z,50
2017-12-27T08:19:21.852Z,50
2017-12-27T08:20:21.590Z,50
2017-12-27T08:21:21.815Z,50
2017-12-27T08:22:21.639Z,55
2017-12-27T08:23:36.555Z,55
2017-12-27T08:24:21.645Z,55
2017-12-27T08:25:21.638Z,55
2017-12-27T08:26:21.916Z,55
2017-12-27T08:27:21.930Z,55
2017-12-27T08:28:36.586Z,55
2017-12-27T08:29:21.680Z,55
2017-12-27T08:30:21.828Z,60
2017-12-27T08:31:21.971Z,60
2017-12-27T08:32:21.730Z,60
2017-12-27T08:33:21.999Z,60
2017-12-27T08:34:22.087Z,60
2017-12-27T08:35:22.046Z,60
2017-12-27T08:36:21.801Z,60
2017-12-27T08:37:36.738Z,60
2017-12-27T08:38:22.094Z,60
2017-12-27T08:39:22.101Z,60
2017-12-27T08:40:22.118Z,60
2017-12-27T08:41:22.181Z,60
2017-12-27T08:42:22.154Z,60
2017-12-27T08:43:22.168Z,60
2017-12-27T08:44:36.817Z,60
2017-12-27T08:45:21.954Z,60
2017-12-27T08:46:22.163Z,60
2017-12-27T08:47:22.232Z,60
2017-12-27T08:48:36.881Z,60
2017-12-27T08:49:21.976Z,60
2017-12-27T08:50:36.661Z,60
2017-12-27T08:51:21.996Z,60
2017-12-27T08:52:22.254Z,60
2017-12-27T08:53:22.030Z,65
2017-12-27T08:54:22.027Z,65
2017-12-27T08:55:22.311Z,65
2017-12-27T08:56:36.760Z,70
2017-12-27T08:57:22.373Z,70
2017-12-27T08:58:22.374Z,70
2017-12-27T08:59:22.372Z,70
2017-12-27T09:00:37.055Z,75
2017-12-27T09:01:22.126Z,75
2017-12-27T09:02:22.464Z,75
2017-12-27T09:03:22.425Z,75
2017-12-27T09:04:37.118Z,80
2017-12-27T09:05:21.988Z,80
2017-12-27T09:06:22.486Z,80
2017-12-27T09:07:22.504Z,80
2017-12-27T09:08:22.482Z,85
2017-12-27T09:09:22.261Z,80
2017-12-27T09:10:22.502Z,80
2017-12-27T09:11:36.966Z,80
2017-12-27T09:12:22.585Z,80
2017-12-27T09:13:36.978Z,80
2017-12-27T09:14:37.274Z,80
2017-12-27T09:15:22.589Z,80
2017-12-27T09:16:37.287Z,80
2017-12-27T09:17:36.821Z,80
2017-12-27T09:18:22.636Z,80
2017-12-27T09:19:22.719Z,85
2017-12-27T09:20:22.748Z,85
2017-12-27T09:21:37.463Z,85
2017-12-27T09:22:22.725Z,90
2017-12-27T09:23:22.746Z,85
2017-12-27T09:24:37.137Z,85
2017-12-27T09:25:22.752Z,85
2017-12-27T09:26:37.415Z,90
2017-12-27T09:27:22.776Z,85
2017-12-27T09:28:37.485Z,85
2017-12-27T09:29:22.806Z,85
2017-12-27T09:30:22.566Z,85
2017-12-27T09:31:37.529Z,85
2017-12-27T09:32:22.631Z,85
2017-12-27T09:33:37.270Z,80
2017-12-27T09:34:37.590Z,80
2017-12-27T09:35:22.653Z,80
2017-12-27T09:36:22.947Z,80
2017-12-27T09:37:22.688Z,75
2017-12-27T09:38:22.969Z,75
2017-12-27T09:39:37.612Z,75
2017-12-27T09:40:37.641Z,70
2017-12-27T09:41:37.671Z,70
2017-12-27T09:42:23.018Z,70
2017-12-27T09:43:37.184Z,70
2017-12-27T09:44:22.545Z,70
2017-12-27T09:45:22.794Z,70
2017-12-27T09:46:23.060Z,70
2017-12-27T09:47:23.071Z,70
2017-12-27T09:48:37.801Z,70
2017-12-27T09:49:37.770Z,70
2017-12-27T09:51:22.905Z,70
2017-12-27T09:52:37.834Z,70
2017-12-27T09:53:23.179Z,70
2017-12-27T09:54:23.192Z,70
2017-12-27T09:55:23.188Z,70
2017-12-27T09:56:23.240Z,70
2017-12-27T09:57:23.252Z,70
2017-12-27T09:58:23.010Z,70
2017-12-27T09:59:37.943Z,70
2017-12-27T10:00:23.000Z,70
2017-12-27T10:02:23.423Z,75
2017-12-27T10:03:37.977Z,75
2017-12-27T10:04:23.356Z,75
2017-12-27T10:05:22.873Z,75
2017-12-27T10:06:23.103Z,75
2017-12-27T10:07:23.122Z,80
2017-12-27T10:08:23.434Z,80
2017-12-27T10:09:22.662Z,80
2017-12-27T10:10:38.096Z,80
2017-12-27T10:11:23.189Z,80
2017-12-27T10:12:23.483Z,80
2017-12-27T10:13:23.474Z,80
2017-12-27T10:14:23.480Z,80
2017-12-27T10:15:23.278Z,80
2017-12-27T10:16:23.288Z,80
2017-12-27T10:17:23.295Z,80
2017-12-27T10:18:38.200Z,80
2017-12-27T10:19:38.220Z,80
2017-12-27T10:20:23.106Z,80
2017-12-27T10:21:23.601Z,80
2017-12-27T10:22:23.359Z,80
2017-12-27T10:23:38.035Z,75
2017-12-27T10:24:23.396Z,75
2017-12-27T10:26:23.711Z,75
2017-12-27T10:27:23.721Z,75
2017-12-27T10:28:23.712Z,75
2017-12-27T10:29:38.393Z,75
2017-12-27T10:30:23.728Z,75
2017-12-27T10:31:23.780Z,75
2017-12-27T10:32:23.759Z,75
2017-12-27T10:33:23.806Z,75
2017-12-27T10:34:38.210Z,80
2017-12-27T10:35:52.923Z,80
2017-12-27T10:36:23.583Z,80
2017-12-27T10:37:23.624Z,75
2017-12-27T10:38:23.592Z,75
2017-12-27T10:40:23.655Z,75
2017-12-27T10:41:23.380Z,75
2017-12-27T10:42:23.908Z,75
2017-12-27T10:43:23.947Z,70
2017-12-27T10:44:23.713Z,70
2017-12-27T10:45:23.710Z,70
2017-12-27T10:46:23.751Z,70
2017-12-27T10:47:23.769Z,70
2017-12-27T10:48:24.010Z,70
2017-12-27T10:49:38.701Z,70
2017-12-27T10:50:24.020Z,70
2017-12-27T10:51:38.768Z,70
2017-12-27T10:52:24.046Z,70
2017-12-27T10:53:23.839Z,70
2017-12-27T10:54:23.590Z,65
2017-12-27T10:55:24.143Z,65
2017-12-27T10:56:23.887Z,65
2017-12-27T10:57:23.953Z,65
2017-12-27T10:58:23.443Z,60
2017-12-27T10:59:24.197Z,60
2017-12-27T11:00:23.690Z,60
2017-12-27T11:01:38.917Z,60
2017-12-27T11:03:38.693Z,60
2017-12-27T11:04:24.023Z,60
2017-12-27T11:05:38.967Z,60
2017-12-27T11:06:39.007Z,60
2017-12-27T11:07:24.332Z,60
2017-12-27T11:08:24.069Z,60
2017-12-27T11:09:24.092Z,60
2017-12-27T11:10:39.074Z,60
2017-12-27T11:11:24.364Z,60
2017-12-27T11:12:24.385Z,60
2017-12-27T11:13:24.429Z,65
2017-12-27T11:14:23.938Z,65
2017-12-27T11:15:24.486Z,65
2017-12-27T11:16:24.207Z,65
2017-12-27T11:17:39.153Z,65
2017-12-27T11:18:23.979Z,65
2017-12-27T11:19:24.286Z,65
2017-12-27T11:20:24.527Z,70
2017-12-27T11:21:24.523Z,70
2017-12-27T11:22:39.229Z,70
2017-12-27T11:23:24.570Z,70
2017-12-27T11:24:39.258Z,70
2017-12-27T11:25:24.327Z,70
2017-12-27T11:26:24.598Z,75
2017-12-27T11:27:24.382Z,75
2017-12-27T11:28:24.420Z,75
2017-12-27T11:29:24.396Z,75
2017-12-27T11:30:24.161Z,75
2017-12-27T11:31:39.360Z,75
2017-12-27T11:32:24.449Z,75
2017-12-27T11:33:24.484Z,75
2017-12-27T11:35:39.430Z,75
2017-12-27T11:36:24.766Z,75
2017-12-27T11:38:54.151Z,70
2017-12-27T11:39:24.938Z,70
2017-12-27T11:40:24.826Z,70
2017-12-27T11:41:24.851Z,70
2017-12-27T11:42:24.712Z,70
2017-12-27T11:43:24.643Z,65
2017-12-27T11:44:24.786Z,65
2017-12-27T11:45:39.623Z,65
2017-12-27T11:46:24.967Z,65
2017-12-27T11:47:24.720Z,60
2017-12-27T11:48:24.995Z,60
2017-12-27T11:49:24.755Z,60
2017-12-27T11:50:39.689Z,60
2017-12-27T11:51:24.795Z,60
2017-12-27T11:53:24.817Z,55
2017-12-27T11:54:39.796Z,55
2017-12-27T11:55:24.861Z,55
2017-12-27T11:57:25.135Z,55
2017-12-27T11:58:24.910Z,60
2017-12-27T11:59:24.891Z,60
2017-12-27T12:00:25.223Z,60
2017-12-27T12:01:39.882Z,60
2017-12-27T12:02:25.227Z,60
2017-12-27T12:03:25.018Z,60
2017-12-27T12:04:24.996Z,60
2017-12-27T12:05:24.994Z,60
2017-12-27T12:06:25.029Z,60
2017-12-27T12:07:25.309Z,60
2017-12-27T12:08:25.342Z,60
2017-12-27T12:10:40.048Z,65
2017-12-27T12:11:25.370Z,65
2017-12-27T12:13:40.078Z,70
2017-12-27T12:14:24.916Z,70
2017-12-27T12:15:25.469Z,65
2017-12-27T12:16:40.116Z,65
2017-12-27T12:17:25.202Z,65
2017-12-27T12:18:25.463Z,60
2017-12-27T12:19:25.532Z,60
2017-12-27T12:20:25.564Z,60
2017-12-27T12:21:25.525Z,60
2017-12-27T12:22:39.745Z,60
2017-12-27T12:24:25.330Z,55
2017-12-27T12:25:25.090Z,55
2017-12-27T12:26:54.758Z,55
2017-12-27T12:27:25.360Z,55
2017-12-27T12:28:25.678Z,55
2017-12-27T12:29:25.704Z,55
2017-12-27T12:30:25.712Z,55
2017-12-27T12:31:25.462Z,50
2017-12-27T12:32:40.425Z,50
2017-12-27T12:33:25.245Z,50
2017-12-27T12:34:25.496Z,50
2017-12-27T12:35:25.521Z,50
2017-12-27T12:36:25.904Z,50
2017-12-27T12:37:25.880Z,50
2017-12-27T12:38:25.861Z,45
2017-12-27T12:40:40.271Z,45
2017-12-27T12:41:40.541Z,45
2017-12-27T12:42:25.669Z,45
2017-12-27T12:43:25.408Z,45
2017-12-27T12:44:25.699Z,45
2017-12-27T12:45:25.670Z,45
2017-12-27T12:46:25.693Z,45
2017-12-27T12:47:25.486Z,45
2017-12-27T12:48:25.483Z,45
2017-12-27T12:49:26.060Z,45
2017-12-27T12:50:25.770Z,45
2017-12-27T12:51:25.792Z,45
2017-12-27T12:52:25.593Z,45
2017-12-27T12:53:40.530Z,40
2017-12-27T12:54:25.640Z,40
2017-12-27T12:55:26.149Z,40
2017-12-27T12:56:25.884Z,40
2017-12-27T12:57:25.918Z,35
2017-12-27T12:58:40.855Z,35
2017-12-27T12:59:26.192Z,35
2017-12-27T13:00:25.659Z,35
2017-12-27T13:01:25.933Z,35
2017-12-27T13:02:26.216Z,30
2017-12-27T13:03:25.732Z,30
2017-12-27T13:04:25.752Z,30
2017-12-27T13:05:40.944Z,30
2017-12-27T13:06:25.553Z,30
2017-12-27T13:08:26.349Z,30
2017-12-27T13:09:25.833Z,30
2017-12-27T13:10:26.422Z,30
2017-12-27T13:11:25.907Z,30
2017-12-27T13:12:40.817Z,30
2017-12-27T13:13:41.135Z,30
2017-12-27T13:15:41.108Z,30
2017-12-27T13:16:26.261Z,25
2017-12-27T13:17:55.832Z,25
2017-12-27T13:18:25.997Z,25
2017-12-27T13:19:41.203Z,25
2017-12-27T13:20:26.305Z,25
2017-12-27T13:21:41.231Z,25
2017-12-27T13:22:26.052Z,25
2017-12-27T13:23:26.577Z,25
2017-12-27T13:24:26.348Z,25
2017-12-27T13:25:26.743Z,25
2017-12-27T13:27:25.893Z,25
2017-12-27T13:28:26.436Z,25
2017-12-27T13:29:41.328Z,20
2017-12-27T13:30:26.463Z,20
2017-12-27T13:31:26.459Z,20
2017-12-27T13:32:26.471Z,20
2017-12-27T13:33:26.749Z,20
2017-12-27T13:34:26.755Z,20
2017-12-27T13:35:41.182Z,20
2017-12-27T13:36:26.301Z,20
2017-12-27T13:37:26.562Z,20
2017-12-27T13:38:26.579Z,20
2017-12-27T13:39:41.519Z,20
2017-12-27T13:40:26.605Z,20
2017-12-27T13:41:41.559Z,15
2017-12-27T13:42:26.932Z,15
2017-12-27T13:43:26.670Z,15
2017-12-27T13:44:26.709Z,15
2017-12-27T13:45:56.299Z,15
2017-12-27T13:46:41.635Z,15
2017-12-27T13:47:26.768Z,15
2017-12-27T13:48:26.742Z,15
2017-12-27T13:50:26.755Z,15
2017-12-27T13:51:41.738Z,10
2017-12-27T13:52:26.846Z,10
2017-12-27T13:53:26.570Z,10
2017-12-27T13:54:41.747Z,10
2017-12-27T13:55:27.111Z,10
2017-12-27T13:56:41.581Z,10
2017-12-27T13:57:26.658Z,10
2017-12-27T13:58:26.669Z,10
2017-12-27T13:59:41.870Z,10
2017-12-27T14:00:26.938Z,10
2017-12-27T14:01:56.311Z,10
2017-12-27T14:02:26.989Z,10
2017-12-27T14:03:27.272Z,10
2017-12-27T14:04:27.257Z,10
2017-12-27T14:05:27.076Z,10
2017-12-27T14:06:27.053Z,10
2017-12-27T14:07:27.079Z,10
2017-12-27T14:08:27.086Z,5
2017-12-27T14:09:27.331Z,5
2017-12-27T14:10:27.120Z,5
2017-12-27T14:11:27.110Z,5
2017-12-27T14:12:27.376Z,5
2017-12-27T14:13:27.428Z,5
2017-12-27T14:14:27.441Z,5
2017-12-27T14:15:27.462Z,5
2017-12-27T14:16:41.988Z,5
2017-12-27T14:17:27.247Z,5
2017-12-27T14:18:26.983Z,5
2017-12-27T14:19:27.533Z,5
2017-12-27T14:20:27.274Z,5
2017-12-27T14:21:27.301Z,5
2017-12-27T14:22:27.592Z,5
2017-12-27T14:23:26.827Z,5
2017-12-27T14:24:27.704Z,5
2017-12-27T14:25:27.098Z,5
2017-12-27T14:26:27.105Z,0
2017-12-27T14:27:42.051Z,0
2017-12-27T14:28:27.700Z,0
2017-12-27T14:29:27.650Z,0
2017-12-27T14:30:27.689Z,0
2017-12-27T14:31:27.445Z,0
2017-12-27T14:32:42.134Z,0
2017-12-27T14:33:27.767Z,0
2017-12-27T14:34:42.430Z,0
2017-12-27T14:35:27.788Z,0
2017-12-27T14:36:42.240Z,0
2017-12-27T14:37:42.237Z,0
2017-12-27T14:38:27.596Z,0
2017-12-27T14:39:27.324Z,0
2017-12-27T14:40:42.533Z,0
2017-12-27T14:41:27.618Z,0
2017-12-27T14:42:27.616Z,0
2017-12-27T14:43:27.680Z,0
2017-12-27T14:44:27.678Z,0
2017-12-27T14:45:27.960Z,0
2017-12-27T14:46:27.720Z,0
2017-12-27T14:47:27.718Z,0
2017-12-27T14:48:42.666Z,0
2017-12-27T14:49:27.770Z,0
2017-12-27T14:50:27.761Z,0
2017-12-27T14:51:27.534Z,0
2017-12-27T14:52:27.789Z,0
2017-12-27T14:53:27.834Z,0
2017-12-27T14:54:27.574Z,0
2017-12-27T14:55:27.881Z,0
2017-12-27T14:56:28.110Z,0
2017-12-27T14:57:27.890Z,0
2017-12-27T14:58:27.896Z,0
2017-12-27T15:00:28.181Z,0
2017-12-27T15:01:42.367Z,0
2017-12-27T15:02:28.208Z,0
2017-12-27T15:03:28.229Z,0
2017-12-27T15:04:42.897Z,0
2017-12-27T15:05:27.778Z,0
2017-12-27T15:06:27.765Z,0
2017-12-27T15:07:27.799Z,0
2017-12-27T15:08:28.313Z,0
2017-12-27T15:09:28.335Z,0
2017-12-27T15:10:28.347Z,0
2017-12-27T15:11:28.354Z,0
2017-12-27T15:12:28.100Z,0
2017-12-27T15:13:28.470Z,0
2017-12-27T15:14:28.147Z,0
2017-12-27T15:15:28.183Z,0
2017-12-27T15:16:42.854Z,0
2017-12-27T15:17:28.252Z,0
2017-12-27T15:18:27.734Z,0
2017-12-27T15:19:28.552Z,0
2017-12-27T15:20:43.278Z,0